createdAt,value
2022-10-18T00:00:22.612Z,5.10
2022-10-18T00:00:55.249Z,4.57
2022-10-18T00:01:30.193Z,4.07
2022-10-18T00:02:02.449Z,3.43
2022-10-18T00:02:34.818Z,3.53
2022-10-18T00:03:09.913Z,3.93
2022-10-18T00:04:15.378Z,4.10
2022-10-18T00:04:50.193Z,4.30
2022-10-18T00:05:22.401Z,4.03
2022-10-18T00:05:54.726Z,4.20
2022-10-18T00:06:26.978Z,4.07
2022-10-18T00:07:01.816Z,3.83
2022-10-18T00:07:34.084Z,3.90
2022-10-18T00:08:06.345Z,3.97
2022-10-18T00:08:43.941Z,4.00
2022-10-18T00:09:16.622Z,4.50
2022-10-18T00:09:48.824Z,4.23
2022-10-18T00:10:24.738Z,4.17
2022-10-18T00:10:57.061Z,3.33
2022-10-18T00:11:29.345Z,4.40
2022-10-18T00:12:04.194Z,4.37
2022-10-18T00:12:37.522Z,4.50
2022-10-18T00:13:09.777Z,3.80
2022-10-18T00:13:45.872Z,4.30
2022-10-18T00:14:18.164Z,4.23
2022-10-18T00:14:50.875Z,4.17
2022-10-18T00:15:26.110Z,5.00
2022-10-18T00:16:00.145Z,4.43
2022-10-18T00:16:32.492Z,4.23
2022-10-18T00:17:07.316Z,4.40
2022-10-18T00:17:39.880Z,4.87
2022-10-18T00:18:13.022Z,5.03
2022-10-18T00:18:48.457Z,4.10
2022-10-18T00:19:26.031Z,4.90
2022-10-18T00:20:01.545Z,4.73
2022-10-18T00:20:36.504Z,4.60
2022-10-18T00:21:13.362Z,5.23
2022-10-18T00:21:45.644Z,5.17
2022-10-18T00:22:20.457Z,5.50
2022-10-18T00:22:52.717Z,5.03
2022-10-18T00:23:25.129Z,4.80
2022-10-18T00:24:02.919Z,5.57
2022-10-18T00:24:35.146Z,5.00
2022-10-18T00:25:08.810Z,5.37
2022-10-18T00:25:41.025Z,5.13
2022-10-18T00:26:17.988Z,5.03
2022-10-18T00:26:50.421Z,5.30
2022-10-18T00:27:22.679Z,5.07
2022-10-18T00:27:57.526Z,5.20
2022-10-18T00:28:29.875Z,5.67
2022-10-18T00:29:05.052Z,5.37
2022-10-18T00:29:39.918Z,6.07
2022-10-18T00:30:12.263Z,5.60
2022-10-18T00:30:44.492Z,5.10
2022-10-18T00:31:21.026Z,4.90
2022-10-18T00:31:53.399Z,5.10
2022-10-18T00:32:26.013Z,6.97
2022-10-18T00:33:00.929Z,5.87
2022-10-18T00:33:33.223Z,5.30
2022-10-18T00:34:07.743Z,5.90
2022-10-18T00:34:42.845Z,5.20
2022-10-18T00:35:15.233Z,4.80
2022-10-18T00:35:47.452Z,5.97
2022-10-18T00:36:20.365Z,5.67
2022-10-18T00:36:55.226Z,5.53
2022-10-18T00:37:28.001Z,5.13
2022-10-18T00:38:00.234Z,4.60
2022-10-18T00:38:35.092Z,5.17
2022-10-18T00:39:14.741Z,4.77
2022-10-18T00:39:49.683Z,4.80
2022-10-18T00:40:21.954Z,6.00
2022-10-18T00:40:54.173Z,4.63
2022-10-18T00:41:31.001Z,3.57
2022-10-18T00:42:03.678Z,3.33
2022-10-18T00:42:37.269Z,3.33
2022-10-18T00:43:14.717Z,2.80
2022-10-18T00:43:57.673Z,2.73
2022-10-18T00:45:14.082Z,2.90
2022-10-18T00:45:46.322Z,2.90
2022-10-18T00:46:18.537Z,3.07
2022-10-18T00:46:53.809Z,3.10
2022-10-18T00:47:26.037Z,3.00
2022-10-18T00:48:00.270Z,3.22
2022-10-18T00:48:35.085Z,3.00
2022-10-18T00:49:11.542Z,3.30
2022-10-18T00:49:45.942Z,3.23
2022-10-18T00:50:21.729Z,3.30
2022-10-18T00:50:54.005Z,3.27
2022-10-18T00:51:29.396Z,3.23
2022-10-18T00:52:06.990Z,3.23
2022-10-18T00:52:42.345Z,3.33
2022-10-18T00:53:18.429Z,4.00
2022-10-18T00:53:53.458Z,3.70
2022-10-18T00:54:29.217Z,3.27
2022-10-18T00:55:01.674Z,4.53
2022-10-18T00:55:37.294Z,3.53
2022-10-18T00:56:09.515Z,4.87
2022-10-18T00:56:44.825Z,4.00
2022-10-18T00:57:19.910Z,4.10
2022-10-18T00:57:52.442Z,4.27
2022-10-18T00:58:27.645Z,4.10
2022-10-18T00:58:59.940Z,4.15
2022-10-18T00:59:32.186Z,5.10
2022-10-18T01:00:10.135Z,4.28
2022-10-18T01:00:42.505Z,4.20
2022-10-18T01:01:15.033Z,4.30
2022-10-18T01:01:50.398Z,4.67
2022-10-18T01:02:22.835Z,5.00
2022-10-18T01:02:56.061Z,4.60
2022-10-18T01:03:30.965Z,4.78
2022-10-18T01:04:03.276Z,4.80
2022-10-18T01:04:35.833Z,4.75
2022-10-18T01:05:12.935Z,4.45
2022-10-18T01:05:47.106Z,4.03
2022-10-18T01:06:19.348Z,4.00
2022-10-18T01:07:09.149Z,4.47
2022-10-18T01:08:05.074Z,4.30
2022-10-18T01:08:49.653Z,3.90
2022-10-18T01:09:30.897Z,3.60
2022-10-18T01:10:09.950Z,3.27
2022-10-18T01:10:49.826Z,4.27
2022-10-18T01:11:36.297Z,3.40
2022-10-18T01:12:19.368Z,3.47
2022-10-18T01:13:09.085Z,2.33
2022-10-18T01:14:05.292Z,3.03
2022-10-18T01:14:45.618Z,2.43
2022-10-18T01:15:24.521Z,2.93
2022-10-18T01:16:03.590Z,2.40
2022-10-18T01:16:38.582Z,2.70
2022-10-18T01:17:16.839Z,2.60
2022-10-18T01:18:00.362Z,2.77
2022-10-18T01:18:38.167Z,2.50
2022-10-18T01:19:53.819Z,2.57
2022-10-18T01:21:02.436Z,2.90
2022-10-18T01:21:44.053Z,2.13
2022-10-18T01:22:21.461Z,2.80
2022-10-18T01:22:59.610Z,2.50
2022-10-18T01:23:46.090Z,2.43
2022-10-18T01:24:53.865Z,2.43
2022-10-18T01:25:39.738Z,2.93
2022-10-18T01:26:24.144Z,3.80
2022-10-18T01:27:12.119Z,3.03
2022-10-18T01:27:55.430Z,3.77
2022-10-18T01:28:39.451Z,2.97
2022-10-18T01:29:17.773Z,3.57
2022-10-18T01:30:00.699Z,3.10
2022-10-18T01:30:46.446Z,3.05
2022-10-18T01:31:22.967Z,3.00
2022-10-18T01:31:59.670Z,3.17
2022-10-18T01:32:35.573Z,3.57
2022-10-18T01:33:17.996Z,2.70
2022-10-18T01:33:53.589Z,2.80
2022-10-18T01:34:27.757Z,3.00
2022-10-18T01:35:06.054Z,3.10
2022-10-18T01:35:43.406Z,3.20
2022-10-18T01:36:19.165Z,2.70
2022-10-18T01:36:55.274Z,2.43
2022-10-18T01:37:28.978Z,3.43
2022-10-18T01:38:04.307Z,2.93
2022-10-18T01:38:40.282Z,2.90
2022-10-18T01:39:15.914Z,2.57
2022-10-18T01:39:51.284Z,3.00
2022-10-18T01:40:27.685Z,2.20
2022-10-18T01:41:01.273Z,2.90
2022-10-18T01:41:38.029Z,2.63
2022-10-18T01:42:12.030Z,2.77
2022-10-18T01:42:45.715Z,2.73
2022-10-18T01:43:18.895Z,3.07
2022-10-18T01:43:56.520Z,2.80
2022-10-18T01:44:30.749Z,3.10
2022-10-18T01:45:04.786Z,3.00
2022-10-18T01:45:37.565Z,2.90
2022-10-18T01:46:16.561Z,3.10
2022-10-18T01:46:48.848Z,3.53
2022-10-18T01:47:22.195Z,3.10
2022-10-18T01:47:57.626Z,3.10
2022-10-18T01:48:30.101Z,3.60
2022-10-18T01:49:02.340Z,2.60
2022-10-18T01:49:37.158Z,2.83
2022-10-18T01:50:10.052Z,2.60
2022-10-18T01:50:42.554Z,2.60
2022-10-18T01:51:17.396Z,2.70
2022-10-18T01:51:49.606Z,2.33
2022-10-18T01:52:21.815Z,3.77
2022-10-18T01:52:54.051Z,2.43
2022-10-18T01:53:32.003Z,2.20
2022-10-18T01:54:04.489Z,2.50
2022-10-18T01:54:39.513Z,2.40
2022-10-18T01:55:11.831Z,2.50
2022-10-18T01:55:51.379Z,2.90
2022-10-18T01:56:32.932Z,3.07
2022-10-18T01:57:13.956Z,2.83
2022-10-18T01:57:53.226Z,2.80
2022-10-18T01:58:30.038Z,2.77
2022-10-18T01:59:25.530Z,3.10
2022-10-18T02:00:01.776Z,2.95
2022-10-18T02:00:44.497Z,2.90
2022-10-18T02:01:31.437Z,2.67
2022-10-18T02:02:10.353Z,2.90
2022-10-18T02:02:47.177Z,2.70
2022-10-18T02:03:25.743Z,3.10
2022-10-18T02:04:06.142Z,2.60
2022-10-18T02:04:42.512Z,2.97
2022-10-18T02:05:22.428Z,2.90
2022-10-18T02:05:58.178Z,2.60
2022-10-18T02:06:32.528Z,2.60
2022-10-18T02:07:11.222Z,2.33
2022-10-18T02:07:51.966Z,2.90
2022-10-18T02:08:36.613Z,2.70
2022-10-18T02:09:15.518Z,2.78
2022-10-18T02:09:50.999Z,2.67
2022-10-18T02:10:26.848Z,2.50
2022-10-18T02:11:03.988Z,2.90
2022-10-18T02:11:37.442Z,2.53
2022-10-18T02:12:11.576Z,2.60
2022-10-18T02:12:47.577Z,2.57
2022-10-18T02:13:21.655Z,2.70
2022-10-18T02:13:56.995Z,2.40
2022-10-18T02:14:32.641Z,2.70
2022-10-18T02:15:06.447Z,3.08
2022-10-18T02:15:40.901Z,2.60
2022-10-18T02:16:19.190Z,2.80
2022-10-18T02:16:56.398Z,2.80
2022-10-18T02:17:30.052Z,2.73
2022-10-18T02:18:06.634Z,3.30
2022-10-18T02:18:42.817Z,2.83
2022-10-18T02:19:19.031Z,2.70
2022-10-18T02:19:56.221Z,2.60
2022-10-18T02:20:29.119Z,2.88
2022-10-18T02:21:02.273Z,2.70
2022-10-18T02:21:37.497Z,2.83
2022-10-18T02:22:11.258Z,2.70
2022-10-18T02:22:46.083Z,2.93
2022-10-18T02:23:24.488Z,2.70
2022-10-18T02:23:58.842Z,2.60
2022-10-18T02:24:35.166Z,2.63
2022-10-18T02:25:12.690Z,2.30
2022-10-18T02:25:44.917Z,2.97
2022-10-18T02:26:17.389Z,2.88
2022-10-18T02:26:49.629Z,2.40
2022-10-18T02:27:24.900Z,2.43
2022-10-18T02:27:57.237Z,7.17
2022-10-18T02:28:29.528Z,2.47
2022-10-18T02:29:04.426Z,2.40
2022-10-18T02:29:36.884Z,2.20
2022-10-18T02:30:10.499Z,2.17
2022-10-18T02:30:50.448Z,2.20
2022-10-18T02:31:27.298Z,2.00
2022-10-18T02:32:05.011Z,1.83
2022-10-18T02:32:42.703Z,1.77
2022-10-18T02:33:17.598Z,1.43
2022-10-18T02:33:54.138Z,1.80
2022-10-18T02:34:32.643Z,1.90
2022-10-18T02:35:06.985Z,1.70
2022-10-18T02:35:42.569Z,1.97
2022-10-18T02:36:22.335Z,1.97
2022-10-18T02:36:57.038Z,1.90
2022-10-18T02:37:35.290Z,1.40
2022-10-18T02:38:08.206Z,1.90
2022-10-18T02:38:40.962Z,1.30
2022-10-18T02:39:21.105Z,1.90
2022-10-18T02:39:53.569Z,2.07
2022-10-18T02:40:26.275Z,1.90
2022-10-18T02:41:01.570Z,1.60
2022-10-18T02:41:34.397Z,1.60
2022-10-18T02:42:08.078Z,1.70
2022-10-18T02:42:47.984Z,1.90
2022-10-18T02:43:20.227Z,1.60
2022-10-18T02:43:52.529Z,1.90
2022-10-18T02:44:27.595Z,2.17
2022-10-18T02:44:59.821Z,1.77
2022-10-18T02:45:32.166Z,2.03
2022-10-18T02:46:07.168Z,1.90
2022-10-18T02:46:40.033Z,1.50
2022-10-18T02:47:14.864Z,1.90
2022-10-18T02:47:49.725Z,1.63
2022-10-18T02:48:21.944Z,1.90
2022-10-18T02:48:54.187Z,1.93
2022-10-18T02:49:29.135Z,2.00
2022-10-18T02:50:01.365Z,2.00
2022-10-18T02:50:33.578Z,1.83
2022-10-18T02:51:06.164Z,1.67
2022-10-18T02:51:41.073Z,1.80
2022-10-18T02:52:13.297Z,1.63
2022-10-18T02:52:45.555Z,1.90
2022-10-18T02:53:20.368Z,1.60
2022-10-18T02:53:52.654Z,1.60
2022-10-18T02:54:25.033Z,1.73
2022-10-18T02:54:59.865Z,2.50
2022-10-18T02:55:32.070Z,2.20
2022-10-18T02:56:04.700Z,2.03
2022-10-18T02:56:39.531Z,2.20
2022-10-18T02:57:11.782Z,1.73
2022-10-18T02:57:44.115Z,1.90
2022-10-18T02:58:18.922Z,2.00
2022-10-18T02:58:51.170Z,1.90
2022-10-18T02:59:23.376Z,1.50
2022-10-18T02:59:58.364Z,1.90
2022-10-18T03:00:30.635Z,2.67
2022-10-18T03:01:02.942Z,2.10
2022-10-18T03:01:37.967Z,2.00
2022-10-18T03:02:10.216Z,2.10
2022-10-18T03:02:45.236Z,2.10
2022-10-18T03:03:20.101Z,2.27
2022-10-18T03:03:52.358Z,2.70
2022-10-18T03:04:24.608Z,2.00
2022-10-18T03:04:59.445Z,2.17
2022-10-18T03:05:31.649Z,2.13
2022-10-18T03:06:04.115Z,2.40
2022-10-18T03:06:36.350Z,2.30
2022-10-18T03:07:11.166Z,2.13
2022-10-18T03:07:43.405Z,2.03
2022-10-18T03:08:15.822Z,1.90
2022-10-18T03:08:50.655Z,2.30
2022-10-18T03:09:22.902Z,2.17
2022-10-18T03:09:55.105Z,2.40
2022-10-18T03:10:30.155Z,2.13
2022-10-18T03:11:02.586Z,2.27
2022-10-18T03:11:34.947Z,2.00
2022-10-18T03:12:09.777Z,1.90
2022-10-18T03:12:41.995Z,1.83
2022-10-18T03:13:14.537Z,2.10
2022-10-18T03:13:50.443Z,1.93
2022-10-18T03:14:23.300Z,2.00
2022-10-18T03:14:55.513Z,2.40
2022-10-18T03:15:30.332Z,2.23
2022-10-18T03:16:02.628Z,2.13
2022-10-18T03:16:35.112Z,2.20
2022-10-18T03:17:10.000Z,2.27
2022-10-18T03:17:44.810Z,2.10
2022-10-18T03:18:17.013Z,1.90
2022-10-18T03:18:51.894Z,1.70
2022-10-18T03:19:24.134Z,1.80
2022-10-18T03:19:56.337Z,2.33
2022-10-18T03:20:31.195Z,2.00
2022-10-18T03:21:05.509Z,1.73
2022-10-18T03:21:37.758Z,1.67
2022-10-18T03:22:12.579Z,1.80
2022-10-18T03:22:44.785Z,2.00
2022-10-18T03:23:16.999Z,2.00
2022-10-18T03:23:51.954Z,2.33
2022-10-18T03:24:24.233Z,2.10
2022-10-18T03:24:56.450Z,2.40
2022-10-18T03:25:31.322Z,2.50
2022-10-18T03:26:03.819Z,2.27
2022-10-18T03:26:36.105Z,2.37
2022-10-18T03:27:10.941Z,2.53
2022-10-18T03:27:43.166Z,2.20
2022-10-18T03:28:15.370Z,2.20
2022-10-18T03:28:50.282Z,2.20
2022-10-18T03:29:22.604Z,2.20
2022-10-18T03:29:54.808Z,2.43
2022-10-18T03:30:29.669Z,2.50
2022-10-18T03:31:02.241Z,2.00
2022-10-18T03:31:34.573Z,3.23
2022-10-18T03:32:09.699Z,2.63
2022-10-18T03:32:44.606Z,2.10
2022-10-18T03:33:17.041Z,2.60
2022-10-18T03:33:51.933Z,1.93
2022-10-18T03:34:24.321Z,2.20
2022-10-18T03:34:56.545Z,2.43
2022-10-18T03:35:28.787Z,2.10
2022-10-18T03:36:03.600Z,2.23
2022-10-18T03:36:38.883Z,1.60
2022-10-18T03:37:11.130Z,2.07
2022-10-18T03:37:43.364Z,1.90
2022-10-18T03:38:18.186Z,2.10
2022-10-18T03:38:50.530Z,2.40
2022-10-18T03:39:22.750Z,2.30
2022-10-18T03:39:57.579Z,1.97
2022-10-18T03:41:24.649Z,2.10
2022-10-18T03:41:56.933Z,2.43
2022-10-18T03:42:29.254Z,2.03
2022-10-18T03:43:01.655Z,2.40
2022-10-18T03:43:36.494Z,2.53
2022-10-18T03:44:08.983Z,2.20
2022-10-18T03:44:43.837Z,2.40
2022-10-18T03:45:16.173Z,2.60
2022-10-18T03:45:48.380Z,2.00
2022-10-18T03:46:23.232Z,2.37
2022-10-18T03:46:55.441Z,2.20
2022-10-18T03:47:27.649Z,1.90
2022-10-18T03:48:05.110Z,1.83
2022-10-18T03:48:37.323Z,2.27
2022-10-18T03:49:09.536Z,2.30
2022-10-18T03:49:44.346Z,2.00
2022-10-18T03:50:16.608Z,2.13
2022-10-18T03:50:48.822Z,2.20
2022-10-18T03:51:23.688Z,2.40
2022-10-18T03:51:55.900Z,1.90
2022-10-18T03:52:28.176Z,2.17
2022-10-18T03:53:03.077Z,1.90
2022-10-18T03:53:35.288Z,2.07
2022-10-18T03:54:07.529Z,2.47
2022-10-18T03:54:42.358Z,2.70
2022-10-18T03:55:14.635Z,2.50
2022-10-18T03:55:51.340Z,2.57
2022-10-18T03:56:26.229Z,2.67
2022-10-18T03:56:58.441Z,3.03
2022-10-18T03:57:30.689Z,2.40
2022-10-18T03:58:05.611Z,2.70
2022-10-18T03:58:37.844Z,4.03
2022-10-18T03:59:10.102Z,3.40
2022-10-18T03:59:44.905Z,3.57
2022-10-18T04:00:17.222Z,3.57
2022-10-18T04:00:50.635Z,3.60
2022-10-18T04:01:25.669Z,3.50
2022-10-18T04:01:58.013Z,3.93
2022-10-18T04:02:30.453Z,4.07
2022-10-18T04:03:08.134Z,4.47
2022-10-18T04:03:40.342Z,4.63
2022-10-18T04:04:15.202Z,3.40
2022-10-18T04:04:47.602Z,2.90
2022-10-18T04:05:19.826Z,2.90
2022-10-18T04:05:54.651Z,2.47
2022-10-18T04:06:26.962Z,2.30
2022-10-18T04:06:59.199Z,2.00
2022-10-18T04:07:31.552Z,1.90
2022-10-18T04:08:06.677Z,1.57
2022-10-18T04:08:38.887Z,2.03
2022-10-18T04:09:11.197Z,1.87
2022-10-18T04:09:46.027Z,1.70
2022-10-18T04:10:18.876Z,1.63
2022-10-18T04:10:52.656Z,1.40
2022-10-18T04:11:27.508Z,1.63
2022-10-18T04:11:59.730Z,1.67
2022-10-18T04:12:32.255Z,1.67
2022-10-18T04:13:07.405Z,1.60
2022-10-18T04:13:39.633Z,1.70
2022-10-18T04:14:11.892Z,1.60
2022-10-18T04:14:46.714Z,1.70
2022-10-18T04:15:18.979Z,1.50
2022-10-18T04:15:51.194Z,1.43
2022-10-18T04:16:26.211Z,1.87
2022-10-18T04:16:58.558Z,1.60
2022-10-18T04:17:31.012Z,1.40
2022-10-18T04:18:08.678Z,1.50
2022-10-18T04:18:40.905Z,1.57
2022-10-18T04:19:13.482Z,1.70
2022-10-18T04:19:49.467Z,1.47
2022-10-18T04:20:21.689Z,1.73
2022-10-18T04:20:56.532Z,1.60
2022-10-18T04:21:28.774Z,1.60
2022-10-18T04:22:01.106Z,2.33
2022-10-18T04:22:36.003Z,1.70
2022-10-18T04:23:08.241Z,1.80
2022-10-18T04:23:40.458Z,2.13
2022-10-18T04:24:15.315Z,1.97
2022-10-18T04:24:47.531Z,2.30
2022-10-18T04:25:19.775Z,2.43
2022-10-18T04:25:54.616Z,2.07
2022-10-18T04:26:26.897Z,2.30
2022-10-18T04:26:59.156Z,2.03
2022-10-18T04:27:34.250Z,2.00
2022-10-18T04:28:06.797Z,1.70
2022-10-18T04:28:40.356Z,1.80
2022-10-18T04:29:15.363Z,2.20
2022-10-18T04:29:47.568Z,2.23
2022-10-18T04:30:19.792Z,1.60
2022-10-18T04:30:55.128Z,2.27
2022-10-18T04:31:27.383Z,2.17
2022-10-18T04:31:59.675Z,2.10
2022-10-18T04:32:31.910Z,2.53
2022-10-18T04:33:09.395Z,2.30
2022-10-18T04:33:41.621Z,1.90
2022-10-18T04:34:13.849Z,1.93
2022-10-18T04:34:46.084Z,1.70
2022-10-18T04:35:24.584Z,2.37
2022-10-18T04:35:56.874Z,1.70
2022-10-18T04:36:29.099Z,1.47
2022-10-18T04:37:03.931Z,2.13
2022-10-18T04:37:36.451Z,1.93
2022-10-18T04:38:09.351Z,1.77
2022-10-18T04:38:44.212Z,1.77
2022-10-18T04:39:16.634Z,1.53
2022-10-18T04:39:52.588Z,1.57
2022-10-18T04:40:28.694Z,1.80
2022-10-18T04:41:00.919Z,1.30
2022-10-18T04:41:33.236Z,1.47
2022-10-18T04:42:08.202Z,1.77
2022-10-18T04:42:40.421Z,1.90
2022-10-18T04:43:12.639Z,1.60
2022-10-18T04:43:47.475Z,1.57
2022-10-18T04:44:19.738Z,1.43
2022-10-18T04:44:52.088Z,1.50
2022-10-18T04:45:26.909Z,1.60
2022-10-18T04:45:59.156Z,1.60
2022-10-18T04:46:31.473Z,1.57
2022-10-18T04:47:03.686Z,1.37
2022-10-18T04:47:38.566Z,1.80
2022-10-18T04:48:13.409Z,1.40
2022-10-18T04:48:45.706Z,1.63
2022-10-18T04:49:20.662Z,1.90
2022-10-18T04:49:53.063Z,1.33
2022-10-18T04:50:25.477Z,1.20
2022-10-18T04:51:00.340Z,1.57
2022-10-18T04:51:32.575Z,1.50
2022-10-18T04:52:07.714Z,1.67
2022-10-18T04:52:40.137Z,1.77
2022-10-18T04:53:12.434Z,1.50
2022-10-18T04:53:47.245Z,1.30
2022-10-18T04:54:19.852Z,1.30
2022-10-18T04:54:53.277Z,1.50
2022-10-18T04:55:28.202Z,1.30
2022-10-18T04:56:00.501Z,1.30
2022-10-18T04:56:32.882Z,1.50
2022-10-18T04:57:07.835Z,1.20
2022-10-18T04:57:40.042Z,1.47
2022-10-18T04:58:12.460Z,1.47
2022-10-18T04:58:47.293Z,1.20
2022-10-18T04:59:19.805Z,1.27
2022-10-18T04:59:52.209Z,1.63
2022-10-18T05:00:27.110Z,1.30
2022-10-18T05:00:59.329Z,1.50
2022-10-18T05:01:34.350Z,1.10
2022-10-18T05:02:06.666Z,1.43
2022-10-18T05:02:38.906Z,1.50
2022-10-18T05:03:18.970Z,1.73
2022-10-18T05:03:53.278Z,2.17
2022-10-18T05:04:25.649Z,1.43
2022-10-18T05:05:00.471Z,1.77
2022-10-18T05:05:49.563Z,1.30
2022-10-18T05:06:27.543Z,1.27
2022-10-18T05:06:59.787Z,1.37
2022-10-18T05:07:34.626Z,1.60
2022-10-18T05:08:07.173Z,1.20
2022-10-18T05:08:39.389Z,1.20
2022-10-18T05:09:14.229Z,1.37
2022-10-18T05:09:46.441Z,1.50
2022-10-18T05:10:21.265Z,1.30
2022-10-18T05:10:53.598Z,1.27
2022-10-18T05:11:25.878Z,1.13
2022-10-18T05:12:00.748Z,1.17
2022-10-18T05:12:33.328Z,1.57
2022-10-18T05:13:05.794Z,1.47
2022-10-18T05:13:40.857Z,1.10
2022-10-18T05:14:13.128Z,1.93
2022-10-18T05:14:45.360Z,1.30
2022-10-18T05:15:20.416Z,1.30
2022-10-18T05:15:52.757Z,1.37
2022-10-18T05:16:25.009Z,1.10
2022-10-18T05:16:59.822Z,1.60
2022-10-18T05:17:32.114Z,1.20
2022-10-18T05:18:04.419Z,1.30
2022-10-18T05:18:43.186Z,1.10
2022-10-18T05:19:15.418Z,1.50
2022-10-18T05:19:47.646Z,1.57
2022-10-18T05:20:19.871Z,1.27
2022-10-18T05:20:54.693Z,1.33
2022-10-18T05:21:26.901Z,1.40
2022-10-18T05:21:59.118Z,1.10
2022-10-18T05:22:34.090Z,1.40
2022-10-18T05:23:06.548Z,1.50
2022-10-18T05:23:38.959Z,1.40
2022-10-18T05:24:14.301Z,1.20
2022-10-18T05:24:46.519Z,1.07
2022-10-18T05:25:18.792Z,1.03
2022-10-18T05:25:53.996Z,1.27
2022-10-18T05:26:26.249Z,1.37
2022-10-18T05:26:58.482Z,1.40
2022-10-18T05:27:33.442Z,1.17
2022-10-18T05:28:10.701Z,1.40
2022-10-18T05:28:48.005Z,1.40
2022-10-18T05:29:22.931Z,1.40
2022-10-18T05:29:55.240Z,1.33
2022-10-18T05:30:27.446Z,1.33
2022-10-18T05:31:04.485Z,1.33
2022-10-18T05:31:36.719Z,1.27
2022-10-18T05:32:08.957Z,1.70
2022-10-18T05:32:43.814Z,1.40
2022-10-18T05:33:16.041Z,1.40
2022-10-18T05:33:50.867Z,1.63
2022-10-18T05:34:27.405Z,1.50
2022-10-18T05:34:59.642Z,1.27
2022-10-18T05:35:31.869Z,1.37
2022-10-18T05:36:07.134Z,1.37
2022-10-18T05:36:39.352Z,1.37
2022-10-18T05:37:11.574Z,1.40
2022-10-18T05:37:46.434Z,1.43
2022-10-18T05:38:18.672Z,1.57
2022-10-18T05:38:50.885Z,1.80
2022-10-18T05:39:25.790Z,2.00
2022-10-18T05:39:58.124Z,1.50
2022-10-18T05:40:30.834Z,1.67
2022-10-18T05:41:07.409Z,1.90
2022-10-18T05:41:39.633Z,1.60
2022-10-18T05:42:12.360Z,1.73
2022-10-18T05:42:47.181Z,1.40
2022-10-18T05:43:19.394Z,1.37
2022-10-18T05:43:51.723Z,1.60
2022-10-18T05:44:26.642Z,1.90
2022-10-18T05:44:58.861Z,1.70
2022-10-18T05:45:31.064Z,1.63
2022-10-18T05:46:11.843Z,2.00
2022-10-18T05:46:46.153Z,1.60
2022-10-18T05:47:21.127Z,1.50
2022-10-18T05:47:53.687Z,1.40
2022-10-18T05:48:26.706Z,1.63
2022-10-18T05:49:04.241Z,1.70
2022-10-18T05:49:36.458Z,2.10
2022-10-18T05:50:12.385Z,1.67
2022-10-18T05:50:44.849Z,1.50
2022-10-18T05:51:17.385Z,1.50
2022-10-18T05:51:52.306Z,1.90
2022-10-18T05:52:24.606Z,2.00
2022-10-18T05:53:02.739Z,1.40
2022-10-18T05:53:47.096Z,1.65
2022-10-18T05:54:19.331Z,1.50
2022-10-18T05:54:51.541Z,1.57
2022-10-18T05:55:26.382Z,1.73
2022-10-18T05:56:00.790Z,1.40
2022-10-18T05:56:35.623Z,1.87
2022-10-18T05:57:07.855Z,1.50
2022-10-18T05:57:40.070Z,1.50
2022-10-18T05:58:15.505Z,1.83
2022-10-18T05:59:00.942Z,1.70
2022-10-18T05:59:35.778Z,1.70
2022-10-18T06:00:13.076Z,1.90
2022-10-18T06:00:45.479Z,1.90
2022-10-18T06:01:20.779Z,2.00
2022-10-18T06:01:52.991Z,2.03
2022-10-18T06:02:25.244Z,1.80
2022-10-18T06:03:00.588Z,1.70
2022-10-18T06:03:33.569Z,2.07
2022-10-18T06:04:11.584Z,2.00
2022-10-18T06:04:43.834Z,1.97
2022-10-18T06:05:16.261Z,2.73
2022-10-18T06:05:51.070Z,2.70
2022-10-18T06:06:23.273Z,2.40
2022-10-18T06:06:58.111Z,2.30
2022-10-18T06:07:30.543Z,2.60
2022-10-18T06:08:05.320Z,2.20
2022-10-18T06:08:45.446Z,2.03
2022-10-18T06:09:17.823Z,1.97
2022-10-18T06:09:50.063Z,2.50
2022-10-18T06:10:24.884Z,2.17
2022-10-18T06:10:57.152Z,2.23
2022-10-18T06:11:29.951Z,2.60
2022-10-18T06:12:04.762Z,2.73
2022-10-18T06:12:37.022Z,2.80
2022-10-18T06:13:09.246Z,2.67
2022-10-18T06:13:44.786Z,3.30
2022-10-18T06:14:16.995Z,3.13
2022-10-18T06:14:51.807Z,2.77
2022-10-18T06:15:24.031Z,2.90
2022-10-18T06:15:56.893Z,2.40
2022-10-18T06:16:32.742Z,2.57
2022-10-18T06:17:05.304Z,1.90
2022-10-18T06:17:37.880Z,2.37
2022-10-18T06:18:13.011Z,1.80
2022-10-18T06:18:48.129Z,2.23
2022-10-18T06:19:23.022Z,2.10
2022-10-18T06:19:57.863Z,2.23
2022-10-18T06:20:30.082Z,2.47
2022-10-18T06:21:02.401Z,2.47
2022-10-18T06:21:37.425Z,2.20
2022-10-18T06:22:09.651Z,2.20
2022-10-18T06:22:41.956Z,2.00
2022-10-18T06:23:16.802Z,2.67
2022-10-18T06:23:49.384Z,2.10
2022-10-18T06:24:21.990Z,2.80
2022-10-18T06:24:57.368Z,2.30
2022-10-18T06:25:29.661Z,2.17
2022-10-18T06:26:02.723Z,2.53
2022-10-18T06:26:37.598Z,2.30
2022-10-18T06:27:09.956Z,2.57
2022-10-18T06:27:42.170Z,3.17
2022-10-18T06:28:17.011Z,2.23
2022-10-18T06:28:49.309Z,2.37
2022-10-18T06:29:24.163Z,2.23
2022-10-18T06:29:56.396Z,2.20
2022-10-18T06:30:28.609Z,2.00
2022-10-18T06:31:03.445Z,2.30
2022-10-18T06:31:35.656Z,2.70
2022-10-18T06:32:11.345Z,2.67
2022-10-18T06:32:43.556Z,2.67
2022-10-18T06:33:15.805Z,2.70
2022-10-18T06:33:50.923Z,2.93
2022-10-18T06:34:25.758Z,2.80
2022-10-18T06:34:57.982Z,2.60
2022-10-18T06:35:32.874Z,2.73
2022-10-18T06:36:06.846Z,2.97
2022-10-18T06:36:39.074Z,2.40
2022-10-18T06:37:13.934Z,2.70
2022-10-18T06:37:46.193Z,2.40
2022-10-18T06:38:18.452Z,2.80
2022-10-18T06:38:53.696Z,2.60
2022-10-18T06:39:26.299Z,2.90
2022-10-18T06:39:58.515Z,3.20
2022-10-18T06:40:37.892Z,3.53
2022-10-18T06:41:10.787Z,3.37
2022-10-18T06:41:45.666Z,3.67
2022-10-18T06:42:24.841Z,3.90
2022-10-18T06:43:00.637Z,3.03
2022-10-18T06:43:45.931Z,2.97
2022-10-18T06:44:18.712Z,3.37
2022-10-18T06:44:54.240Z,3.17
2022-10-18T06:45:27.276Z,3.07
2022-10-18T06:46:05.286Z,2.87
2022-10-18T06:46:40.165Z,3.60
2022-10-18T06:47:12.412Z,3.30
2022-10-18T06:47:47.290Z,3.87
2022-10-18T06:49:18.962Z,3.53
2022-10-18T06:49:54.191Z,4.00
2022-10-18T06:50:27.427Z,3.33
2022-10-18T06:51:03.444Z,3.60
2022-10-18T06:51:35.662Z,4.20
2022-10-18T06:52:10.489Z,3.20
2022-10-18T06:52:42.698Z,4.33
2022-10-18T06:53:14.987Z,3.13
2022-10-18T06:54:05.935Z,3.53
2022-10-18T06:54:44.210Z,2.90
2022-10-18T06:55:20.084Z,6.13
2022-10-18T06:55:52.356Z,5.70
2022-10-18T06:56:27.170Z,8.73
2022-10-18T06:56:59.609Z,9.65
2022-10-18T06:57:31.950Z,6.93
2022-10-18T06:58:06.829Z,8.13
2022-10-18T06:58:39.760Z,7.97
2022-10-18T06:59:12.061Z,5.73
2022-10-18T06:59:46.866Z,5.70
2022-10-18T07:00:19.288Z,5.50
2022-10-18T07:00:51.495Z,5.20
2022-10-18T07:01:26.728Z,4.40
2022-10-18T07:01:59.033Z,4.73
2022-10-18T07:02:31.539Z,4.70
2022-10-18T07:03:06.778Z,4.00
2022-10-18T07:03:39.161Z,3.60
2022-10-18T07:04:14.127Z,4.20
2022-10-18T07:04:46.352Z,3.90
2022-10-18T07:05:21.210Z,3.87
2022-10-18T07:05:56.069Z,3.70
2022-10-18T07:06:28.452Z,3.73
2022-10-18T07:07:03.360Z,3.50
2022-10-18T07:07:35.867Z,3.13
2022-10-18T07:08:08.374Z,3.33
2022-10-18T07:08:43.742Z,3.03
2022-10-18T07:09:15.981Z,3.40
2022-10-18T07:09:48.678Z,3.63
2022-10-18T07:10:23.549Z,3.43
2022-10-18T07:10:55.857Z,3.37
2022-10-18T07:11:28.084Z,3.20
2022-10-18T07:12:02.895Z,2.57
2022-10-18T07:12:35.126Z,2.97
2022-10-18T07:13:30.820Z,2.80
2022-10-18T07:14:05.009Z,4.13
2022-10-18T07:14:37.236Z,2.80
2022-10-18T07:15:11.014Z,2.60
2022-10-18T07:15:45.836Z,3.30
2022-10-18T07:16:19.302Z,3.57
2022-10-18T07:16:54.239Z,3.27
2022-10-18T07:17:26.960Z,3.43
2022-10-18T07:17:59.193Z,2.83
2022-10-18T07:18:34.094Z,3.00
2022-10-18T07:19:06.363Z,3.17
2022-10-18T07:19:41.215Z,3.00
2022-10-18T07:20:13.571Z,2.97
2022-10-18T07:20:48.407Z,3.07
2022-10-18T07:21:24.741Z,2.60
2022-10-18T07:21:56.990Z,3.10
2022-10-18T07:22:31.795Z,3.43
2022-10-18T07:23:05.668Z,3.30
2022-10-18T07:23:41.906Z,6.00
2022-10-18T07:24:14.254Z,3.77
2022-10-18T07:24:49.126Z,2.70
2022-10-18T07:25:21.341Z,2.90
2022-10-18T07:25:53.566Z,2.80
2022-10-18T07:26:30.146Z,2.87
2022-10-18T07:27:02.353Z,3.23
2022-10-18T07:27:36.901Z,2.93
2022-10-18T07:28:11.720Z,2.70
2022-10-18T07:28:45.409Z,2.50
2022-10-18T07:29:17.705Z,2.47
2022-10-18T07:29:52.600Z,2.87
2022-10-18T07:30:24.826Z,2.80
2022-10-18T07:30:57.070Z,3.03
2022-10-18T07:31:33.465Z,2.87
2022-10-18T07:32:06.105Z,3.13
2022-10-18T07:32:38.329Z,3.13
2022-10-18T07:33:13.130Z,3.10
2022-10-18T07:33:45.388Z,2.87
2022-10-18T07:34:20.238Z,3.30
2022-10-18T07:34:52.442Z,2.80
2022-10-18T07:35:24.705Z,2.83
2022-10-18T07:36:03.899Z,3.00
2022-10-18T07:36:36.176Z,2.97
2022-10-18T07:37:08.431Z,3.23
2022-10-18T07:37:43.246Z,3.40
2022-10-18T07:38:15.511Z,3.10
2022-10-18T07:38:50.933Z,2.67
2022-10-18T07:39:23.408Z,2.90
2022-10-18T07:39:55.658Z,3.17
2022-10-18T07:40:30.476Z,2.63
2022-10-18T07:41:04.211Z,3.00
2022-10-18T07:41:40.052Z,2.87
2022-10-18T07:42:12.315Z,3.07
2022-10-18T07:42:44.538Z,2.60
2022-10-18T07:43:19.375Z,2.70
2022-10-18T07:43:52.707Z,2.80